sensor_id;sensor_type;location;lat;lon;timestamp;P1;durP1;ratioP1;P2;durP2;ratioP2
71814;SDS011;59659;41.520;23.794;2022-11-02T00:01:17;16.38;;;5.70;;
71814;SDS011;59659;41.520;23.794;2022-11-02T00:02:30;10.77;;;5.38;;
71814;SDS011;59659;41.520;23.794;2022-11-02T00:03:42;10.85;;;4.88;;
71814;SDS011;59659;41.520;23.794;2022-11-02T00:04:53;12.60;;;5.55;;
71814;SDS011;59659;41.520;23.794;2022-11-02T00:06:05;11.75;;;4.90;;
71814;SDS011;59659;41.520;23.794;2022-11-02T00:07:16;14.18;;;5.05;;
71814;SDS011;59659;41.520;23.794;2022-11-02T00:08:27;7.80;;;4.25;;
71814;SDS011;59659;41.520;23.794;2022-11-02T00:09:39;7.70;;;4.72;;
71814;SDS011;59659;41.520;23.794;2022-11-02T00:10:50;12.85;;;4.95;;
71814;SDS011;59659;41.520;23.794;2022-11-02T00:12:02;9.65;;;5.20;;
71814;SDS011;59659;41.520;23.794;2022-11-02T00:13:13;11.25;;;5.38;;
71814;SDS011;59659;41.520;23.794;2022-11-02T00:14:25;12.27;;;4.82;;
71814;SDS011;59659;41.520;23.794;2022-11-02T00:15:36;9.05;;;4.43;;
71814;SDS011;59659;41.520;23.794;2022-11-02T00:16:48;10.77;;;5.07;;
71814;SDS011;59659;41.520;23.794;2022-11-02T00:18:03;13.25;;;4.18;;
71814;SDS011;59659;41.520;23.794;2022-11-02T00:19:15;9.80;;;5.10;;
71814;SDS011;59659;41.520;23.794;2022-11-02T00:20:27;10.32;;;4.05;;
71814;SDS011;59659;41.520;23.794;2022-11-02T00:21:38;10.23;;;5.05;;
71814;SDS011;59659;41.520;23.794;2022-11-02T00:22:50;10.65;;;4.78;;
71814;SDS011;59659;41.520;23.794;2022-11-02T00:24:02;13.10;;;4.93;;
71814;SDS011;59659;41.520;23.794;2022-11-02T00:25:15;8.25;;;3.80;;
71814;SDS011;59659;41.520;23.794;2022-11-02T00:26:28;8.23;;;4.20;;
71814;SDS011;59659;41.520;23.794;2022-11-02T00:27:40;11.13;;;4.35;;
71814;SDS011;59659;41.520;23.794;2022-11-02T00:28:52;11.30;;;4.40;;
71814;SDS011;59659;41.520;23.794;2022-11-02T00:30:04;10.77;;;4.88;;
71814;SDS011;59659;41.520;23.794;2022-11-02T00:31:16;6.43;;;4.35;;
71814;SDS011;59659;41.520;23.794;2022-11-02T00:32:27;10.25;;;4.40;;
71814;SDS011;59659;41.520;23.794;2022-11-02T00:33:39;7.47;;;5.05;;
71814;SDS011;59659;41.520;23.794;2022-11-02T00:34:50;10.18;;;4.05;;
71814;SDS011;59659;41.520;23.794;2022-11-02T00:36:02;11.70;;;4.55;;
71814;SDS011;59659;41.520;23.794;2022-11-02T00:37:13;14.65;;;5.15;;
71814;SDS011;59659;41.520;23.794;2022-11-02T00:38:24;11.98;;;4.55;;
71814;SDS011;59659;41.520;23.794;2022-11-02T00:39:36;10.32;;;4.40;;
71814;SDS011;59659;41.520;23.794;2022-11-02T00:40:47;11.00;;;4.95;;
71814;SDS011;59659;41.520;23.794;2022-11-02T00:41:59;12.43;;;3.70;;
71814;SDS011;59659;41.520;23.794;2022-11-02T00:43:10;8.23;;;4.03;;
71814;SDS011;59659;41.520;23.794;2022-11-02T00:44:22;7.82;;;4.72;;
71814;SDS011;59659;41.520;23.794;2022-11-02T00:45:33;9.30;;;4.20;;
71814;SDS011;59659;41.520;23.794;2022-11-02T00:46:45;8.73;;;4.03;;
71814;SDS011;59659;41.520;23.794;2022-11-02T00:47:56;14.63;;;4.72;;
71814;SDS011;59659;41.520;23.794;2022-11-02T00:49:08;6.47;;;3.88;;
71814;SDS011;59659;41.520;23.794;2022-11-02T00:50:19;8.88;;;4.13;;
71814;SDS011;59659;41.520;23.794;2022-11-02T00:51:31;8.57;;;4.28;;
71814;SDS011;59659;41.520;23.794;2022-11-02T00:52:42;6.13;;;3.92;;
71814;SDS011;59659;41.520;23.794;2022-11-02T00:53:53;7.75;;;3.80;;
71814;SDS011;59659;41.520;23.794;2022-11-02T00:55:05;11.95;;;3.83;;
71814;SDS011;59659;41.520;23.794;2022-11-02T00:56:19;5.80;;;3.33;;
71814;SDS011;59659;41.520;23.794;2022-11-02T00:57:30;8.73;;;4.00;;
71814;SDS011;59659;41.520;23.794;2022-11-02T00:58:42;9.27;;;4.18;;
71814;SDS011;59659;41.520;23.794;2022-11-02T00:59:53;5.03;;;3.75;;
71814;SDS011;59659;41.520;23.794;2022-11-02T01:01:06;6.13;;;3.28;;
71814;SDS011;59659;41.520;23.794;2022-11-02T01:02:17;11.45;;;4.50;;
71814;SDS011;59659;41.520;23.794;2022-11-02T01:03:29;10.05;;;4.28;;
71814;SDS011;59659;41.520;23.794;2022-11-02T01:04:40;8.40;;;4.72;;
71814;SDS011;59659;41.520;23.794;2022-11-02T01:05:52;11.55;;;4.70;;
71814;SDS011;59659;41.520;23.794;2022-11-02T01:07:03;6.50;;;4.10;;
71814;SDS011;59659;41.520;23.794;2022-11-02T01:08:15;8.65;;;4.68;;
71814;SDS011;59659;41.520;23.794;2022-11-02T01:09:26;9.20;;;4.40;;
71814;SDS011;59659;41.520;23.794;2022-11-02T01:10:38;8.43;;;4.38;;
71814;SDS011;59659;41.520;23.794;2022-11-02T01:11:55;10.38;;;3.90;;
71814;SDS011;59659;41.520;23.794;2022-11-02T01:13:07;8.90;;;4.82;;
71814;SDS011;59659;41.520;23.794;2022-11-02T01:14:19;12.48;;;4.68;;
71814;SDS011;59659;41.520;23.794;2022-11-02T01:15:31;9.63;;;4.85;;
71814;SDS011;59659;41.520;23.794;2022-11-02T01:16:42;10.25;;;3.83;;
71814;SDS011;59659;41.520;23.794;2022-11-02T01:17:59;7.85;;;4.38;;
71814;SDS011;59659;41.520;23.794;2022-11-02T01:19:11;12.88;;;4.60;;
71814;SDS011;59659;41.520;23.794;2022-11-02T01:20:23;9.88;;;4.47;;
71814;SDS011;59659;41.520;23.794;2022-11-02T01:21:34;11.80;;;4.60;;
71814;SDS011;59659;41.520;23.794;2022-11-02T01:22:45;14.50;;;4.30;;
71814;SDS011;59659;41.520;23.794;2022-11-02T01:23:57;9.02;;;3.92;;
71814;SDS011;59659;41.520;23.794;2022-11-02T01:25:08;11.23;;;4.25;;
71814;SDS011;59659;41.520;23.794;2022-11-02T01:26:20;13.57;;;4.15;;
71814;SDS011;59659;41.520;23.794;2022-11-02T01:27:31;6.20;;;4.05;;
71814;SDS011;59659;41.520;23.794;2022-11-02T01:28:43;7.60;;;4.05;;
71814;SDS011;59659;41.520;23.794;2022-11-02T01:29:55;7.20;;;4.13;;
71814;SDS011;59659;41.520;23.794;2022-11-02T01:31:07;14.02;;;4.60;;
71814;SDS011;59659;41.520;23.794;2022-11-02T01:32:18;9.48;;;4.07;;
71814;SDS011;59659;41.520;23.794;2022-11-02T01:33:30;8.75;;;4.10;;
71814;SDS011;59659;41.520;23.794;2022-11-02T01:34:41;9.48;;;4.28;;
71814;SDS011;59659;41.520;23.794;2022-11-02T01:35:54;11.00;;;5.00;;
71814;SDS011;59659;41.520;23.794;2022-11-02T01:37:05;7.95;;;3.95;;
71814;SDS011;59659;41.520;23.794;2022-11-02T01:38:17;8.20;;;4.20;;
71814;SDS011;59659;41.520;23.794;2022-11-02T01:39:28;7.97;;;4.60;;
71814;SDS011;59659;41.520;23.794;2022-11-02T01:40:40;13.60;;;3.95;;
71814;SDS011;59659;41.520;23.794;2022-11-02T01:41:51;11.95;;;4.47;;
71814;SDS011;59659;41.520;23.794;2022-11-02T01:44:34;9.80;;;4.78;;
71814;SDS011;59659;41.520;23.794;2022-11-02T01:45:45;11.18;;;4.25;;
71814;SDS011;59659;41.520;23.794;2022-11-02T01:47:07;13.73;;;4.15;;
71814;SDS011;59659;41.520;23.794;2022-11-02T01:48:19;7.70;;;4.55;;
71814;SDS011;59659;41.520;23.794;2022-11-02T01:49:34;8.27;;;4.00;;
71814;SDS011;59659;41.520;23.794;2022-11-02T01:50:47;8.98;;;4.82;;
71814;SDS011;59659;41.520;23.794;2022-11-02T01:53:13;8.45;;;4.47;;
71814;SDS011;59659;41.520;23.794;2022-11-02T01:54:26;11.13;;;4.38;;
71814;SDS011;59659;41.520;23.794;2022-11-02T01:55:39;10.60;;;4.38;;
71814;SDS011;59659;41.520;23.794;2022-11-02T01:56:53;8.05;;;4.15;;
71814;SDS011;59659;41.520;23.794;2022-11-02T01:58:07;9.38;;;3.90;;
71814;SDS011;59659;41.520;23.794;2022-11-02T01:59:21;9.80;;;3.80;;
71814;SDS011;59659;41.520;23.794;2022-11-02T02:00:33;7.93;;;4.63;;
71814;SDS011;59659;41.520;23.794;2022-11-02T02:01:45;11.43;;;3.85;;
71814;SDS011;59659;41.520;23.794;2022-11-02T02:03:00;8.88;;;4.05;;
71814;SDS011;59659;41.520;23.794;2022-11-02T02:04:14;9.20;;;4.80;;
71814;SDS011;59659;41.520;23.794;2022-11-02T02:05:26;6.10;;;3.67;;
71814;SDS011;59659;41.520;23.794;2022-11-02T02:06:38;5.35;;;3.70;;
71814;SDS011;59659;41.520;23.794;2022-11-02T02:07:50;8.32;;;4.28;;
71814;SDS011;59659;41.520;23.794;2022-11-02T02:09:02;10.02;;;4.85;;
71814;SDS011;59659;41.520;23.794;2022-11-02T02:10:15;8.77;;;4.82;;
71814;SDS011;59659;41.520;23.794;2022-11-02T02:12:38;8.60;;;4.07;;
71814;SDS011;59659;41.520;23.794;2022-11-02T02:13:52;9.32;;;4.03;;
71814;SDS011;59659;41.520;23.794;2022-11-02T02:15:04;6.78;;;3.67;;
71814;SDS011;59659;41.520;23.794;2022-11-02T02:16:17;11.85;;;4.72;;
71814;SDS011;59659;41.520;23.794;2022-11-02T02:18:56;7.18;;;3.90;;
71814;SDS011;59659;41.520;23.794;2022-11-02T02:21:27;6.43;;;3.75;;
71814;SDS011;59659;41.520;23.794;2022-11-02T02:24:29;12.30;;;5.10;;
71814;SDS011;59659;41.520;23.794;2022-11-02T02:25:52;10.00;;;4.38;;
71814;SDS011;59659;41.520;23.794;2022-11-02T02:32:24;7.20;;;3.67;;
71814;SDS011;59659;41.520;23.794;2022-11-02T02:33:41;11.20;;;4.45;;
71814;SDS011;59659;41.520;23.794;2022-11-02T02:34:57;9.98;;;4.20;;
71814;SDS011;59659;41.520;23.794;2022-11-02T02:36:20;8.65;;;4.43;;
71814;SDS011;59659;41.520;23.794;2022-11-02T02:37:39;6.38;;;4.30;;
71814;SDS011;59659;41.520;23.794;2022-11-02T02:40:18;13.82;;;5.00;;
71814;SDS011;59659;41.520;23.794;2022-11-02T02:41:40;9.77;;;4.70;;
71814;SDS011;59659;41.520;23.794;2022-11-02T02:43:17;7.95;;;4.40;;
71814;SDS011;59659;41.520;23.794;2022-11-02T02:44:27;8.65;;;4.88;;
71814;SDS011;59659;41.520;23.794;2022-11-02T02:46:58;8.75;;;4.20;;
71814;SDS011;59659;41.520;23.794;2022-11-02T02:48:12;10.00;;;4.60;;
71814;SDS011;59659;41.520;23.794;2022-11-02T02:49:27;10.18;;;4.53;;
71814;SDS011;59659;41.520;23.794;2022-11-02T02:50:42;9.52;;;4.25;;
71814;SDS011;59659;41.520;23.794;2022-11-02T02:51:56;8.65;;;4.97;;
71814;SDS011;59659;41.520;23.794;2022-11-02T02:53:07;8.25;;;5.68;;
71814;SDS011;59659;41.520;23.794;2022-11-02T02:54:24;7.78;;;4.90;;
71814;SDS011;59659;41.520;23.794;2022-11-02T02:55:38;12.27;;;5.47;;
71814;SDS011;59659;41.520;23.794;2022-11-02T02:56:52;9.95;;;5.47;;
71814;SDS011;59659;41.520;23.794;2022-11-02T02:58:05;10.43;;;5.50;;
71814;SDS011;59659;41.520;23.794;2022-11-02T02:59:22;13.95;;;5.78;;
71814;SDS011;59659;41.520;23.794;2022-11-02T03:00:35;7.97;;;4.72;;
71814;SDS011;59659;41.520;23.794;2022-11-02T03:01:46;9.68;;;4.35;;
71814;SDS011;59659;41.520;23.794;2022-11-02T03:02:58;9.45;;;4.25;;
71814;SDS011;59659;41.520;23.794;2022-11-02T03:04:11;11.18;;;5.53;;
71814;SDS011;59659;41.520;23.794;2022-11-02T03:05:24;10.10;;;4.85;;
71814;SDS011;59659;41.520;23.794;2022-11-02T03:06:35;8.32;;;5.00;;
71814;SDS011;59659;41.520;23.794;2022-11-02T03:07:47;11.45;;;5.70;;
71814;SDS011;59659;41.520;23.794;2022-11-02T03:10:11;9.05;;;4.47;;
71814;SDS011;59659;41.520;23.794;2022-11-02T03:11:26;9.43;;;4.97;;
71814;SDS011;59659;41.520;23.794;2022-11-02T03:14:04;10.38;;;4.20;;
71814;SDS011;59659;41.520;23.794;2022-11-02T03:18:24;21.35;;;4.72;;
71814;SDS011;59659;41.520;23.794;2022-11-02T03:19:43;12.23;;;4.75;;
71814;SDS011;59659;41.520;23.794;2022-11-02T03:23:38;10.43;;;4.63;;
71814;SDS011;59659;41.520;23.794;2022-11-02T03:26:07;10.73;;;5.63;;
71814;SDS011;59659;41.520;23.794;2022-11-02T03:27:24;14.98;;;4.70;;
71814;SDS011;59659;41.520;23.794;2022-11-02T03:30:00;8.35;;;4.72;;
71814;SDS011;59659;41.520;23.794;2022-11-02T03:31:33;10.27;;;3.95;;
71814;SDS011;59659;41.520;23.794;2022-11-02T03:32:59;7.68;;;4.85;;
71814;SDS011;59659;41.520;23.794;2022-11-02T03:35:29;5.78;;;3.88;;
71814;SDS011;59659;41.520;23.794;2022-11-02T03:36:44;10.68;;;4.38;;
71814;SDS011;59659;41.520;23.794;2022-11-02T03:38:01;8.82;;;4.30;;
71814;SDS011;59659;41.520;23.794;2022-11-02T03:39:14;14.50;;;4.97;;
71814;SDS011;59659;41.520;23.794;2022-11-02T03:40:28;7.10;;;4.20;;
71814;SDS011;59659;41.520;23.794;2022-11-02T03:41:42;6.80;;;3.72;;
71814;SDS011;59659;41.520;23.794;2022-11-02T03:42:54;7.80;;;4.10;;
71814;SDS011;59659;41.520;23.794;2022-11-02T03:44:10;8.07;;;4.75;;
71814;SDS011;59659;41.520;23.794;2022-11-02T03:45:23;7.63;;;4.32;;
71814;SDS011;59659;41.520;23.794;2022-11-02T03:46:36;27.20;;;5.13;;
71814;SDS011;59659;41.520;23.794;2022-11-02T03:47:50;8.75;;;3.65;;
71814;SDS011;59659;41.520;23.794;2022-11-02T03:49:04;8.68;;;4.25;;
71814;SDS011;59659;41.520;23.794;2022-11-02T03:50:19;11.00;;;4.45;;
71814;SDS011;59659;41.520;23.794;2022-11-02T03:51:35;6.70;;;3.97;;
71814;SDS011;59659;41.520;23.794;2022-11-02T03:52:59;8.90;;;4.50;;
71814;SDS011;59659;41.520;23.794;2022-11-02T03:54:24;5.95;;;4.10;;
71814;SDS011;59659;41.520;23.794;2022-11-02T03:55:40;9.15;;;3.80;;
71814;SDS011;59659;41.520;23.794;2022-11-02T03:56:53;8.40;;;4.25;;
71814;SDS011;59659;41.520;23.794;2022-11-02T03:58:08;5.13;;;3.20;;
71814;SDS011;59659;41.520;23.794;2022-11-02T03:59:20;7.95;;;3.67;;
71814;SDS011;59659;41.520;23.794;2022-11-02T04:00:32;6.32;;;4.32;;
71814;SDS011;59659;41.520;23.794;2022-11-02T04:01:46;7.28;;;4.47;;
71814;SDS011;59659;41.520;23.794;2022-11-02T04:02:59;7.07;;;3.85;;
71814;SDS011;59659;41.520;23.794;2022-11-02T04:04:10;9.63;;;4.18;;
71814;SDS011;59659;41.520;23.794;2022-11-02T04:05:32;10.32;;;4.10;;
71814;SDS011;59659;41.520;23.794;2022-11-02T04:06:44;8.45;;;3.83;;
71814;SDS011;59659;41.520;23.794;2022-11-02T04:07:58;7.63;;;4.05;;
71814;SDS011;59659;41.520;23.794;2022-11-02T04:09:28;11.68;;;4.10;;
71814;SDS011;59659;41.520;23.794;2022-11-02T04:10:39;7.72;;;4.22;;
71814;SDS011;59659;41.520;23.794;2022-11-02T04:12:11;9.73;;;4.35;;
71814;SDS011;59659;41.520;23.794;2022-11-02T04:13:40;10.38;;;4.05;;
71814;SDS011;59659;41.520;23.794;2022-11-02T04:15:10;12.27;;;5.15;;
71814;SDS011;59659;41.520;23.794;2022-11-02T04:16:22;9.98;;;4.53;;
71814;SDS011;59659;41.520;23.794;2022-11-02T04:17:38;6.30;;;3.42;;
71814;SDS011;59659;41.520;23.794;2022-11-02T04:19:08;8.25;;;3.72;;
71814;SDS011;59659;41.520;23.794;2022-11-02T04:20:38;6.95;;;4.25;;
71814;SDS011;59659;41.520;23.794;2022-11-02T04:21:50;9.73;;;4.13;;
71814;SDS011;59659;41.520;23.794;2022-11-02T04:23:19;11.00;;;3.90;;
71814;SDS011;59659;41.520;23.794;2022-11-02T04:24:50;5.95;;;4.40;;
71814;SDS011;59659;41.520;23.794;2022-11-02T04:26:20;11.77;;;4.90;;
71814;SDS011;59659;41.520;23.794;2022-11-02T04:27:32;8.10;;;4.35;;
71814;SDS011;59659;41.520;23.794;2022-11-02T04:28:43;8.77;;;4.05;;
71814;SDS011;59659;41.520;23.794;2022-11-02T04:29:54;8.70;;;4.72;;
71814;SDS011;59659;41.520;23.794;2022-11-02T04:31:06;15.20;;;3.97;;
71814;SDS011;59659;41.520;23.794;2022-11-02T04:32:17;12.98;;;3.90;;
71814;SDS011;59659;41.520;23.794;2022-11-02T04:33:49;5.90;;;3.70;;
71814;SDS011;59659;41.520;23.794;2022-11-02T04:35:01;8.23;;;4.75;;
71814;SDS011;59659;41.520;23.794;2022-11-02T04:36:12;13.45;;;5.55;;
71814;SDS011;59659;41.520;23.794;2022-11-02T04:37:23;13.57;;;4.65;;
71814;SDS011;59659;41.520;23.794;2022-11-02T04:38:53;11.07;;;5.05;;
71814;SDS011;59659;41.520;23.794;2022-11-02T04:40:05;9.77;;;5.28;;
71814;SDS011;59659;41.520;23.794;2022-11-02T04:41:17;10.52;;;5.38;;
71814;SDS011;59659;41.520;23.794;2022-11-02T04:42:47;9.15;;;3.97;;
71814;SDS011;59659;41.520;23.794;2022-11-02T04:43:59;9.20;;;4.05;;
71814;SDS011;59659;41.520;23.794;2022-11-02T04:45:10;8.25;;;3.45;;
71814;SDS011;59659;41.520;23.794;2022-11-02T04:46:23;12.30;;;4.65;;
71814;SDS011;59659;41.520;23.794;2022-11-02T04:47:34;8.13;;;4.75;;
71814;SDS011;59659;41.520;23.794;2022-11-02T04:48:46;9.65;;;4.75;;
71814;SDS011;59659;41.520;23.794;2022-11-02T04:49:58;7.88;;;5.32;;
71814;SDS011;59659;41.520;23.794;2022-11-02T04:51:09;6.88;;;4.03;;
71814;SDS011;59659;41.520;23.794;2022-11-02T04:52:20;10.40;;;4.40;;
71814;SDS011;59659;41.520;23.794;2022-11-02T04:53:32;11.00;;;4.93;;
71814;SDS011;59659;41.520;23.794;2022-11-02T04:54:43;10.05;;;4.40;;
71814;SDS011;59659;41.520;23.794;2022-11-02T04:55:55;11.32;;;4.32;;
71814;SDS011;59659;41.520;23.794;2022-11-02T04:57:06;10.20;;;3.60;;
71814;SDS011;59659;41.520;23.794;2022-11-02T04:58:18;8.35;;;4.63;;
71814;SDS011;59659;41.520;23.794;2022-11-02T04:59:29;6.55;;;3.67;;
71814;SDS011;59659;41.520;23.794;2022-11-02T05:00:40;9.32;;;4.70;;
71814;SDS011;59659;41.520;23.794;2022-11-02T05:01:53;10.85;;;5.07;;
71814;SDS011;59659;41.520;23.794;2022-11-02T05:03:04;8.35;;;4.03;;
71814;SDS011;59659;41.520;23.794;2022-11-02T05:04:21;7.65;;;4.00;;
71814;SDS011;59659;41.520;23.794;2022-11-02T05:05:32;6.85;;;4.00;;
71814;SDS011;59659;41.520;23.794;2022-11-02T05:06:44;9.98;;;5.22;;
71814;SDS011;59659;41.520;23.794;2022-11-02T05:07:55;12.80;;;5.07;;
71814;SDS011;59659;41.520;23.794;2022-11-02T05:09:07;8.95;;;4.47;;
71814;SDS011;59659;41.520;23.794;2022-11-02T05:10:19;12.23;;;5.05;;
71814;SDS011;59659;41.520;23.794;2022-11-02T05:11:30;11.05;;;5.45;;
71814;SDS011;59659;41.520;23.794;2022-11-02T05:12:42;13.07;;;5.18;;
71814;SDS011;59659;41.520;23.794;2022-11-02T05:13:53;7.70;;;4.35;;
71814;SDS011;59659;41.520;23.794;2022-11-02T05:15:05;10.70;;;4.45;;
71814;SDS011;59659;41.520;23.794;2022-11-02T05:16:16;11.18;;;4.80;;
71814;SDS011;59659;41.520;23.794;2022-11-02T05:17:28;7.80;;;4.55;;
71814;SDS011;59659;41.520;23.794;2022-11-02T05:18:39;12.43;;;6.40;;
71814;SDS011;59659;41.520;23.794;2022-11-02T05:19:51;11.32;;;5.00;;
71814;SDS011;59659;41.520;23.794;2022-11-02T05:21:03;11.38;;;5.72;;
71814;SDS011;59659;41.520;23.794;2022-11-02T05:22:14;12.27;;;7.13;;
71814;SDS011;59659;41.520;23.794;2022-11-02T05:23:26;17.27;;;8.80;;
71814;SDS011;59659;41.520;23.794;2022-11-02T05:24:38;19.23;;;8.55;;
71814;SDS011;59659;41.520;23.794;2022-11-02T05:25:53;18.27;;;7.28;;
71814;SDS011;59659;41.520;23.794;2022-11-02T05:27:05;16.05;;;8.52;;
71814;SDS011;59659;41.520;23.794;2022-11-02T05:28:16;21.90;;;8.98;;
71814;SDS011;59659;41.520;23.794;2022-11-02T05:29:28;19.17;;;9.02;;
71814;SDS011;59659;41.520;23.794;2022-11-02T05:30:39;16.42;;;9.57;;
71814;SDS011;59659;41.520;23.794;2022-11-02T05:31:51;15.52;;;8.95;;
71814;SDS011;59659;41.520;23.794;2022-11-02T05:33:02;17.70;;;7.85;;
71814;SDS011;59659;41.520;23.794;2022-11-02T05:34:14;17.55;;;8.00;;
71814;SDS011;59659;41.520;23.794;2022-11-02T05:35:26;17.75;;;7.55;;
71814;SDS011;59659;41.520;23.794;2022-11-02T05:36:37;16.30;;;7.03;;
71814;SDS011;59659;41.520;23.794;2022-11-02T05:37:48;14.73;;;7.93;;
71814;SDS011;59659;41.520;23.794;2022-11-02T05:39:00;17.70;;;6.85;;
71814;SDS011;59659;41.520;23.794;2022-11-02T05:40:11;15.43;;;6.13;;
71814;SDS011;59659;41.520;23.794;2022-11-02T05:41:24;21.92;;;7.75;;
71814;SDS011;59659;41.520;23.794;2022-11-02T05:42:35;10.30;;;6.05;;
71814;SDS011;59659;41.520;23.794;2022-11-02T05:43:47;10.77;;;6.93;;
71814;SDS011;59659;41.520;23.794;2022-11-02T05:44:58;12.63;;;5.88;;
71814;SDS011;59659;41.520;23.794;2022-11-02T05:46:09;13.95;;;7.28;;
71814;SDS011;59659;41.520;23.794;2022-11-02T05:47:21;24.75;;;7.30;;
71814;SDS011;59659;41.520;23.794;2022-11-02T05:48:33;8.35;;;5.50;;
71814;SDS011;59659;41.520;23.794;2022-11-02T05:49:44;15.30;;;7.70;;
71814;SDS011;59659;41.520;23.794;2022-11-02T05:50:56;15.13;;;8.45;;
71814;SDS011;59659;41.520;23.794;2022-11-02T05:52:08;20.40;;;8.38;;
71814;SDS011;59659;41.520;23.794;2022-11-02T05:53:19;18.40;;;8.73;;
71814;SDS011;59659;41.520;23.794;2022-11-02T05:54:31;14.32;;;7.75;;
71814;SDS011;59659;41.520;23.794;2022-11-02T05:55:42;16.55;;;8.18;;
71814;SDS011;59659;41.520;23.794;2022-11-02T05:56:53;24.33;;;9.85;;
71814;SDS011;59659;41.520;23.794;2022-11-02T05:58:05;13.90;;;7.55;;
71814;SDS011;59659;41.520;23.794;2022-11-02T05:59:16;16.80;;;9.10;;
71814;SDS011;59659;41.520;23.794;2022-11-02T06:00:28;17.83;;;8.77;;
71814;SDS011;59659;41.520;23.794;2022-11-02T06:01:39;16.00;;;9.57;;
71814;SDS011;59659;41.520;23.794;2022-11-02T06:02:57;22.10;;;11.32;;
71814;SDS011;59659;41.520;23.794;2022-11-02T06:04:09;29.52;;;9.52;;
71814;SDS011;59659;41.520;23.794;2022-11-02T06:05:20;23.17;;;9.05;;
71814;SDS011;59659;41.520;23.794;2022-11-02T06:06:32;13.93;;;8.45;;
71814;SDS011;59659;41.520;23.794;2022-11-02T06:07:43;18.90;;;8.05;;
71814;SDS011;59659;41.520;23.794;2022-11-02T06:08:55;13.48;;;6.07;;
71814;SDS011;59659;41.520;23.794;2022-11-02T06:10:07;9.55;;;6.40;;
71814;SDS011;59659;41.520;23.794;2022-11-02T06:11:18;10.88;;;6.03;;
71814;SDS011;59659;41.520;23.794;2022-11-02T06:12:30;17.33;;;6.85;;
71814;SDS011;59659;41.520;23.794;2022-11-02T06:13:41;13.25;;;5.72;;
71814;SDS011;59659;41.520;23.794;2022-11-02T06:14:53;10.85;;;5.95;;
71814;SDS011;59659;41.520;23.794;2022-11-02T06:16:05;16.88;;;6.53;;
71814;SDS011;59659;41.520;23.794;2022-11-02T06:17:18;19.70;;;8.00;;
71814;SDS011;59659;41.520;23.794;2022-11-02T06:18:29;25.13;;;8.40;;
71814;SDS011;59659;41.520;23.794;2022-11-02T06:19:46;11.00;;;7.18;;
71814;SDS011;59659;41.520;23.794;2022-11-02T06:20:59;19.45;;;7.80;;
71814;SDS011;59659;41.520;23.794;2022-11-02T06:22:10;19.33;;;9.63;;
71814;SDS011;59659;41.520;23.794;2022-11-02T06:23:22;24.00;;;11.27;;
71814;SDS011;59659;41.520;23.794;2022-11-02T06:24:34;36.13;;;14.93;;
71814;SDS011;59659;41.520;23.794;2022-11-02T06:25:52;35.40;;;14.25;;
71814;SDS011;59659;41.520;23.794;2022-11-02T06:27:04;29.27;;;12.07;;
71814;SDS011;59659;41.520;23.794;2022-11-02T06:28:15;21.85;;;9.07;;
71814;SDS011;59659;41.520;23.794;2022-11-02T06:29:26;20.40;;;9.82;;
71814;SDS011;59659;41.520;23.794;2022-11-02T06:30:38;17.30;;;7.32;;
71814;SDS011;59659;41.520;23.794;2022-11-02T06:31:49;15.00;;;7.85;;
71814;SDS011;59659;41.520;23.794;2022-11-02T06:33:01;12.95;;;7.18;;
71814;SDS011;59659;41.520;23.794;2022-11-02T06:34:17;17.20;;;6.97;;
71814;SDS011;59659;41.520;23.794;2022-11-02T06:35:29;8.98;;;5.20;;
71814;SDS011;59659;41.520;23.794;2022-11-02T06:36:40;11.18;;;5.10;;
71814;SDS011;59659;41.520;23.794;2022-11-02T06:37:51;12.93;;;6.43;;
71814;SDS011;59659;41.520;23.794;2022-11-02T06:39:03;16.45;;;6.45;;
71814;SDS011;59659;41.520;23.794;2022-11-02T06:40:14;22.92;;;7.55;;
71814;SDS011;59659;41.520;23.794;2022-11-02T06:41:26;11.40;;;6.35;;
71814;SDS011;59659;41.520;23.794;2022-11-02T06:42:37;15.40;;;7.07;;
71814;SDS011;59659;41.520;23.794;2022-11-02T06:44:00;12.40;;;8.63;;
71814;SDS011;59659;41.520;23.794;2022-11-02T06:45:12;19.40;;;9.93;;
71814;SDS011;59659;41.520;23.794;2022-11-02T06:46:23;13.55;;;7.25;;
71814;SDS011;59659;41.520;23.794;2022-11-02T06:47:35;10.00;;;6.55;;
71814;SDS011;59659;41.520;23.794;2022-11-02T06:48:47;16.42;;;6.57;;
71814;SDS011;59659;41.520;23.794;2022-11-02T06:49:59;13.45;;;6.70;;
71814;SDS011;59659;41.520;23.794;2022-11-02T06:51:11;46.78;;;24.55;;
71814;SDS011;59659;41.520;23.794;2022-11-02T06:52:22;34.50;;;17.25;;
71814;SDS011;59659;41.520;23.794;2022-11-02T06:53:34;25.02;;;14.30;;
71814;SDS011;59659;41.520;23.794;2022-11-02T06:54:45;25.92;;;13.70;;
71814;SDS011;59659;41.520;23.794;2022-11-02T06:55:58;14.40;;;9.63;;
71814;SDS011;59659;41.520;23.794;2022-11-02T06:57:09;19.45;;;9.77;;
71814;SDS011;59659;41.520;23.794;2022-11-02T06:58:22;23.52;;;9.35;;
71814;SDS011;59659;41.520;23.794;2022-11-02T06:59:34;17.60;;;10.00;;
71814;SDS011;59659;41.520;23.794;2022-11-02T07:00:46;17.90;;;10.73;;
71814;SDS011;59659;41.520;23.794;2022-11-02T07:01:57;18.20;;;10.60;;
71814;SDS011;59659;41.520;23.794;2022-11-02T07:03:09;22.80;;;10.80;;
71814;SDS011;59659;41.520;23.794;2022-11-02T07:04:21;21.05;;;11.82;;
71814;SDS011;59659;41.520;23.794;2022-11-02T07:05:33;18.20;;;8.88;;
71814;SDS011;59659;41.520;23.794;2022-11-02T07:06:44;16.23;;;9.68;;
71814;SDS011;59659;41.520;23.794;2022-11-02T07:07:56;16.55;;;8.32;;
71814;SDS011;59659;41.520;23.794;2022-11-02T07:09:07;18.00;;;9.23;;
71814;SDS011;59659;41.520;23.794;2022-11-02T07:10:19;15.38;;;8.85;;
71814;SDS011;59659;41.520;23.794;2022-11-02T07:11:30;20.15;;;8.35;;
71814;SDS011;59659;41.520;23.794;2022-11-02T07:12:42;18.98;;;8.60;;
71814;SDS011;59659;41.520;23.794;2022-11-02T07:13:53;21.77;;;10.98;;
71814;SDS011;59659;41.520;23.794;2022-11-02T07:15:05;38.60;;;18.23;;
71814;SDS011;59659;41.520;23.794;2022-11-02T07:16:17;15.23;;;9.18;;
71814;SDS011;59659;41.520;23.794;2022-11-02T07:17:28;21.33;;;9.57;;
71814;SDS011;59659;41.520;23.794;2022-11-02T07:18:42;14.15;;;8.00;;
71814;SDS011;59659;41.520;23.794;2022-11-02T07:19:54;17.67;;;8.90;;
71814;SDS011;59659;41.520;23.794;2022-11-02T07:21:05;12.52;;;6.38;;
71814;SDS011;59659;41.520;23.794;2022-11-02T07:22:17;9.45;;;6.10;;
71814;SDS011;59659;41.520;23.794;2022-11-02T07:23:28;11.82;;;7.07;;
71814;SDS011;59659;41.520;23.794;2022-11-02T07:24:40;16.80;;;7.38;;
71814;SDS011;59659;41.520;23.794;2022-11-02T07:25:51;13.73;;;7.93;;
71814;SDS011;59659;41.520;23.794;2022-11-02T07:27:03;17.15;;;9.05;;
71814;SDS011;59659;41.520;23.794;2022-11-02T07:28:14;16.90;;;6.65;;
71814;SDS011;59659;41.520;23.794;2022-11-02T07:29:26;13.98;;;7.20;;
71814;SDS011;59659;41.520;23.794;2022-11-02T07:30:37;22.27;;;8.95;;
71814;SDS011;59659;41.520;23.794;2022-11-02T07:31:49;11.23;;;5.90;;
71814;SDS011;59659;41.520;23.794;2022-11-02T07:33:00;16.27;;;6.07;;
71814;SDS011;59659;41.520;23.794;2022-11-02T07:34:12;14.40;;;5.55;;
71814;SDS011;59659;41.520;23.794;2022-11-02T07:35:27;12.48;;;5.75;;
71814;SDS011;59659;41.520;23.794;2022-11-02T07:36:39;12.88;;;7.57;;
71814;SDS011;59659;41.520;23.794;2022-11-02T07:37:57;19.08;;;8.48;;
71814;SDS011;59659;41.520;23.794;2022-11-02T07:39:08;18.50;;;11.82;;
71814;SDS011;59659;41.520;23.794;2022-11-02T07:40:20;18.05;;;7.93;;